Terminal Aerodrome Forecast
Issued by NWS

Home | Current Version | Previous Version | Text Only | Print | Product List | Glossary On
Versions: 1 2 3 4 5 6 7 8 9 10 11 12 13 14 15 16 17 18 19 20 21 22 23 24 25 26 27
000
FTUS43 KAPX 251100 AAA
TAFAPN
TAF AMD
KAPN 251158Z 2512/2612 24010G18KT P6SM SCT015
     FM251230 27011G20KT P6SM SKC
     FM251500 28013G23KT P6SM SCT040
     FM260000 29010G18KT P6SM SCT060=

USA.gov is the U.S. government's official web portal to all federal, state and local government web resources and services.